Time;durP1;ratioP1;P1;durP2;ratioP2;P2;SDS_P1;SDS_P2;PMS_P1;PMS_P2;Temp;Humidity;BMP_temperature;BMP_pressure;BME280_temperature;BME280_humidity;BME280_pressure;Samples;Min_cycle;Max_cycle;Signal;HPM_P1;HPM_P2
2023/06/27 00:00:27;;;;;;;4.75;1.15;;;;;;;19.38;63.29;102056.91;4992071;28;97601;-27
2023/06/27 00:02:53;;;;;;;5.63;1.15;;;;;;;19.34;63.21;102057.28;4991870;28;98006;-27
2023/06/27 00:05:19;;;;;;;5.43;1.35;;;;;;;19.35;63.94;102057.13;4992104;28;96452;-26
2023/06/27 00:07:44;;;;;;;4.75;1.52;;;;;;;19.36;62.55;102060.78;4992303;28;96782;-28
2023/06/27 00:10:10;;;;;;;1.58;0.70;;;;;;;19.34;61.63;102052.63;4991504;28;99821;-27
2023/06/27 00:12:36;;;;;;;4.20;0.82;;;;;;;19.35;61.03;102057.13;4990236;28;100711;-27
2023/06/27 00:15:05;;;;;;;2.15;0.80;;;;;;;19.35;60.92;102064.50;4989848;28;97311;-27
2023/06/27 00:17:33;;;;;;;3.25;0.80;;;;;;;19.35;60.80;102057.13;4991577;28;97147;-26
2023/06/27 00:20:00;;;;;;;3.63;0.90;;;;;;;19.41;60.35;102058.53;4991504;28;97992;-27
2023/06/27 00:22:26;;;;;;;3.45;1.00;;;;;;;19.43;59.99;102062.91;4990147;28;101026;-27
2023/06/27 00:24:53;;;;;;;4.63;0.95;;;;;;;19.38;60.22;102056.91;4990346;28;96684;-26
2023/06/27 00:27:19;;;;;;;5.05;1.13;;;;;;;19.37;60.47;102063.38;4990365;28;96987;-26
2023/06/27 00:29:44;;;;;;;1.90;0.75;;;;;;;19.35;60.23;102065.38;4991394;28;99647;-26
2023/06/27 00:32:10;;;;;;;5.15;0.95;;;;;;;19.40;60.15;102065.91;4991752;28;99198;-28
2023/06/27 00:34:35;;;;;;;3.15;0.73;;;;;;;19.41;60.27;102066.78;4991334;28;96915;-26
2023/06/27 00:37:00;;;;;;;2.17;0.90;;;;;;;19.41;60.44;102061.28;4991779;28;96798;-27
2023/06/27 00:39:26;;;;;;;3.70;0.82;;;;;;;19.40;60.30;102060.41;4990764;28;98171;-27
2023/06/27 00:41:52;;;;;;;3.08;1.10;;;;;;;19.39;59.84;102063.25;4991293;28;98733;-27
2023/06/27 00:44:18;;;;;;;3.00;0.93;;;;;;;19.40;59.99;102056.75;4990092;28;96802;-27
2023/06/27 00:46:50;;;;;;;2.92;1.20;;;;;;;19.36;60.42;102056.16;4991551;28;96729;-27
2023/06/27 00:49:17;;;;;;;2.38;0.95;;;;;;;19.37;60.18;102063.38;4993522;28;97994;-27
2023/06/27 00:51:46;;;;;;;4.22;1.00;;;;;;;19.33;60.37;102063.75;4993094;28;101473;-27
2023/06/27 00:54:12;;;;;;;2.08;1.00;;;;;;;19.35;60.21;102059.88;4993479;28;96642;-27
2023/06/27 00:56:38;;;;;;;2.55;1.00;;;;;;;19.27;60.63;102051.38;4995112;28;96886;-27
2023/06/27 00:59:04;;;;;;;3.30;0.80;;;;;;;19.34;60.50;102057.28;4993220;28;101356;-27
2023/06/27 01:01:31;;;;;;;1.45;0.75;;;;;;;19.35;60.27;102061.75;4994705;28;97248;-26
2023/06/27 01:03:57;;;;;;;2.38;1.13;;;;;;;19.30;60.21;102067.59;4992785;28;96816;-27
2023/06/27 01:06:37;;;;;;;3.80;0.90;;;;;;;19.28;60.50;102061.34;4994474;28;97234;-26
2023/06/27 01:09:09;;;;;;;3.25;0.80;;;;;;;19.24;60.33;102055.25;4993185;28;101081;-27
2023/06/27 01:11:41;;;;;;;4.28;1.30;;;;;;;19.26;60.37;102063.38;4993230;28;100804;-26
2023/06/27 01:14:09;;;;;;;6.82;1.05;;;;;;;19.22;60.24;102059.97;4993228;28;96683;-27
2023/06/27 01:16:36;;;;;;;2.58;1.02;;;;;;;19.25;60.57;102067.09;4992948;28;96912;-28
2023/06/27 01:19:07;;;;;;;5.72;0.82;;;;;;;19.21;60.57;102071.97;4994038;28;99343;-27
2023/06/27 01:21:35;;;;;;;3.72;0.80;;;;;;;19.24;60.92;102070.88;4993252;28;100985;-28
2023/06/27 01:24:06;;;;;;;4.03;1.23;;;;;;;19.20;60.51;102064.72;4992879;28;96587;-27
2023/06/27 01:26:31;;;;;;;2.93;0.87;;;;;;;19.26;60.64;102061.50;4992971;28;96691;-27
2023/06/27 01:28:56;;;;;;;2.13;0.80;;;;;;;19.19;60.75;102056.63;4993805;28;97947;-26
2023/06/27 01:31:41;;;;;;;3.85;0.98;;;;;;;19.22;61.08;102064.59;4994113;28;97689;-27
2023/06/27 01:34:16;;;;;;;3.80;0.98;;;;;;;19.23;60.69;102060.84;4992306;28;96566;-27
2023/06/27 01:36:50;;;;;;;2.63;0.93;;;;;;;19.19;60.95;102051.13;4992201;28;97627;-27
2023/06/27 01:39:21;;;;;;;2.13;0.93;;;;;;;19.22;61.07;102051.75;4992643;28;101141;-27
2023/06/27 01:41:51;;;;;;;2.83;0.80;;;;;;;19.19;61.17;102048.38;4992551;28;100996;-26
2023/06/27 01:44:19;;;;;;;4.47;1.15;;;;;;;19.17;61.63;102050.38;4992721;28;96669;-26
2023/06/27 01:46:47;;;;;;;3.65;1.27;;;;;;;19.13;61.89;102043.34;4993060;28;96619;-27
2023/06/27 01:49:14;;;;;;;3.55;1.00;;;;;;;19.11;61.76;102051.69;4992452;28;101256;-27
2023/06/27 01:51:41;;;;;;;3.80;1.00;;;;;;;19.04;61.85;102054.06;4992332;28;99869;-26
2023/06/27 01:54:06;;;;;;;3.58;1.20;;;;;;;19.03;61.74;102048.69;4992028;28;97146;-27
2023/06/27 01:56:32;;;;;;;4.38;0.77;;;;;;;18.97;61.62;102043.66;4993825;28;96771;-26
2023/06/27 01:58:57;;;;;;;3.95;1.25;;;;;;;18.97;62.67;102047.28;4993319;28;97928;-27
2023/06/27 02:01:22;;;;;;;5.50;1.00;;;;;;;18.91;62.64;102046.91;4993839;28;97120;-27
2023/06/27 02:03:48;;;;;;;4.00;0.80;;;;;;;18.88;62.10;102046.16;4993739;28;96613;-26
2023/06/27 02:06:15;;;;;;;3.25;0.98;;;;;;;18.84;62.38;102047.38;4993917;28;96749;-27
2023/06/27 02:08:41;;;;;;;2.45;1.08;;;;;;;18.83;63.16;102045.63;4993616;28;98001;-27
2023/06/27 02:11:06;;;;;;;1.60;1.05;;;;;;;18.85;62.45;102051.88;4993824;28;97795;-26
2023/06/27 02:13:37;;;;;;;2.70;0.85;;;;;;;18.81;63.70;102057.72;4993747;28;96717;-26
2023/06/27 02:16:02;;;;;;;3.08;0.88;;;;;;;18.74;63.05;102053.69;4992146;28;96553;-26
2023/06/27 02:18:28;;;;;;;1.02;0.68;;;;;;;18.76;63.75;102051.66;4993088;28;97956;-26
2023/06/27 02:20:53;;;;;;;2.25;0.80;;;;;;;18.67;63.55;102039.53;4993545;28;97777;-27
2023/06/27 02:23:18;;;;;;;5.88;1.00;;;;;;;18.63;63.86;102043.50;4993376;28;96626;-27
2023/06/27 02:25:44;;;;;;;3.92;1.20;;;;;;;18.59;63.30;102029.16;4993490;28;96755;-28
2023/06/27 02:28:09;;;;;;;2.55;0.93;;;;;;;18.54;64.43;102028.59;4993140;28;98991;-26
2023/06/27 02:30:34;;;;;;;7.38;1.00;;;;;;;18.52;64.52;102037.94;4993174;28;97926;-27
2023/06/27 02:33:00;;;;;;;2.20;0.77;;;;;;;18.42;64.39;102029.53;4993337;28;96486;-27
2023/06/27 02:35:25;;;;;;;2.78;0.88;;;;;;;18.45;65.46;102032.94;4992694;28;96775;-26
2023/06/27 02:37:51;;;;;;;2.50;0.75;;;;;;;18.43;64.71;102034.94;4993482;28;97522;-26
2023/06/27 02:40:16;;;;;;;3.90;1.20;;;;;;;18.34;64.48;102021.03;4993138;28;97846;-26
2023/06/27 02:42:42;;;;;;;1.48;0.77;;;;;;;18.33;64.19;102031.16;4992558;28;96744;-26
2023/06/27 02:45:07;;;;;;;1.73;0.73;;;;;;;18.25;64.46;102031.69;4992918;28;96911;-27
2023/06/27 02:47:33;;;;;;;1.83;0.77;;;;;;;18.31;64.75;102044.09;4992711;28;99066;-27
2023/06/27 02:49:58;;;;;;;5.72;1.08;;;;;;;18.28;65.04;102041.56;4992832;28;97217;-27
2023/06/27 02:52:23;;;;;;;5.63;0.90;;;;;;;18.24;65.05;102031.84;4993041;28;96545;-27
2023/06/27 02:54:49;;;;;;;2.75;0.80;;;;;;;18.23;65.34;102033.72;4992862;28;96965;-26
2023/06/27 02:57:14;;;;;;;1.45;0.82;;;;;;;18.24;65.77;102040.06;4992930;28;97432;-27
2023/06/27 02:59:39;;;;;;;6.95;1.13;;;;;;;18.17;65.68;102036.91;4993241;28;97289;-26
2023/06/27 03:02:05;;;;;;;2.38;1.02;;;;;;;18.16;65.93;102034.25;4992984;28;96628;-26
2023/06/27 03:04:30;;;;;;;4.80;1.33;;;;;;;18.11;65.53;102039.22;4992943;28;96848;-26
2023/06/27 03:06:55;;;;;;;3.25;1.10;;;;;;;18.13;66.07;102039.97;4992381;28;97901;-27
2023/06/27 03:09:21;;;;;;;4.25;1.02;;;;;;;18.11;65.59;102044.69;4992500;28;97890;-27
2023/06/27 03:11:46;;;;;;;4.13;1.20;;;;;;;18.13;66.38;102051.81;4991690;28;96670;-27
2023/06/27 03:14:17;;;;;;;6.63;1.30;;;;;;;18.00;65.96;102035.41;4992617;28;96901;-26
2023/06/27 03:16:42;;;;;;;2.35;1.02;;;;;;;17.98;66.49;102051.09;4992264;28;99346;-27
2023/06/27 03:19:08;;;;;;;5.90;1.30;;;;;;;18.04;65.51;102052.50;4992873;28;97397;-27
2023/06/27 03:21:36;;;;;;;1.77;1.02;;;;;;;18.06;67.28;102060.63;4992610;28;96530;-27
2023/06/27 03:24:01;;;;;;;4.10;1.50;;;;;;;18.01;67.01;102059.09;4992919;28;96814;-26
2023/06/27 03:26:28;;;;;;;2.92;0.93;;;;;;;18.01;66.11;102067.31;4992367;28;97456;-28
2023/06/27 03:28:54;;;;;;;1.98;1.00;;;;;;;17.99;66.97;102057.44;4990956;28;101346;-27
2023/06/27 03:31:20;;;;;;;2.15;1.00;;;;;;;17.93;66.61;102047.81;4990521;28;97101;-27
2023/06/27 03:33:46;;;;;;;4.25;0.95;;;;;;;17.93;66.51;102066.13;4992382;28;96808;-27
2023/06/27 03:36:11;;;;;;;2.67;0.90;;;;;;;17.93;66.88;102060.66;4991597;28;98026;-27
2023/06/27 03:38:37;;;;;;;6.22;1.13;;;;;;;17.87;66.99;102052.88;4992477;28;97289;-26
2023/06/27 03:41:02;;;;;;;2.75;1.27;;;;;;;17.86;66.96;102062.97;4992738;28;96545;-26
2023/06/27 03:43:28;;;;;;;2.00;0.98;;;;;;;17.81;67.48;102057.81;4992409;28;96824;-26
2023/06/27 03:45:53;;;;;;;1.95;1.02;;;;;;;17.86;67.19;102062.09;4991846;28;99036;-26
2023/06/27 03:48:18;;;;;;;1.58;1.00;;;;;;;17.81;67.31;102057.81;4992326;28;99076;-26
2023/06/27 03:50:44;;;;;;;1.38;0.88;;;;;;;17.80;67.57;102067.03;4992256;28;96605;-27
2023/06/27 03:53:09;;;;;;;2.85;0.95;;;;;;;17.75;67.82;102057.34;4992030;28;96751;-28
2023/06/27 03:55:37;;;;;;;3.88;1.00;;;;;;;17.73;67.79;102067.53;4991143;28;105836;-27
2023/06/27 03:58:02;;;;;;;2.13;1.10;;;;;;;17.72;68.28;102060.31;4990392;28;101015;-27
2023/06/27 04:00:28;;;;;;;1.77;0.90;;;;;;;17.73;67.48;102062.06;4992087;28;96602;-27
2023/06/27 04:02:54;;;;;;;2.95;0.90;;;;;;;17.67;67.84;102063.38;4991890;28;96799;-26
2023/06/27 04:05:20;;;;;;;4.05;1.30;;;;;;;17.63;68.30;102054.50;4991645;28;99232;-27
2023/06/27 04:07:46;;;;;;;2.38;1.00;;;;;;;17.62;67.67;102060.97;4991845;28;97616;-27
2023/06/27 04:10:11;;;;;;;1.88;1.00;;;;;;;17.67;68.38;102068.00;4992132;28;96435;-27
2023/06/27 04:12:36;;;;;;;2.28;0.88;;;;;;;17.66;68.04;102069.84;4992142;28;96842;-27
2023/06/27 04:15:02;;;;;;;4.28;1.23;;;;;;;17.59;68.22;102063.94;4991812;28;97908;-27
2023/06/27 04:17:28;;;;;;;2.97;1.00;;;;;;;17.59;68.38;102074.00;4991821;28;97834;-26
2023/06/27 04:19:53;;;;;;;5.43;1.17;;;;;;;17.56;68.34;102060.53;4991374;28;96497;-27
2023/06/27 04:22:18;;;;;;;2.53;0.95;;;;;;;17.55;68.65;102072.50;4992542;28;96864;-26
2023/06/27 04:24:44;;;;;;;3.95;1.30;;;;;;;17.51;68.40;102065.47;4995336;28;97284;-27
2023/06/27 04:27:09;;;;;;;1.00;0.55;;;;;;;17.49;68.79;102071.06;4995178;28;97797;-27
2023/06/27 04:29:35;;;;;;;5.57;1.00;;;;;;;17.51;68.84;102074.56;4995305;28;96532;-27
2023/06/27 04:32:01;;;;;;;2.83;0.80;;;;;;;17.49;68.81;102081.13;4995080;28;96858;-26
2023/06/27 04:34:26;;;;;;;1.92;0.85;;;;;;;17.47;68.46;102080.38;4994514;28;97899;-27
2023/06/27 04:36:52;;;;;;;1.25;1.00;;;;;;;17.51;68.09;102087.38;4994695;28;99469;-27
2023/06/27 04:39:17;;;;;;;2.08;0.93;;;;;;;17.51;67.72;102079.16;4995202;28;96680;-26
2023/06/27 04:41:43;;;;;;;1.40;0.65;;;;;;;17.58;67.56;102085.97;4995079;28;96748;-26
2023/06/27 04:44:08;;;;;;;3.47;0.90;;;;;;;17.59;66.15;102082.22;4994484;28;97923;-26
2023/06/27 04:46:33;;;;;;;1.85;0.80;;;;;;;17.60;66.16;102089.47;4995044;28;97782;-27
2023/06/27 04:49:00;;;;;;;2.55;0.75;;;;;;;17.67;65.81;102088.06;4995012;28;96571;-26
2023/06/27 04:51:29;;;;;;;4.32;1.00;;;;;;;17.72;65.60;102091.34;4994489;28;96895;-27
2023/06/27 04:53:55;;;;;;;2.70;1.05;;;;;;;17.72;65.39;102085.84;4994719;28;98426;-27
2023/06/27 04:56:21;;;;;;;4.22;1.08;;;;;;;17.74;64.99;102074.78;4993231;28;100823;-27
2023/06/27 04:58:46;;;;;;;1.88;0.75;;;;;;;17.79;64.56;102081.69;4994892;28;96630;-27
2023/06/27 05:01:12;;;;;;;1.85;1.05;;;;;;;17.82;64.41;102078.75;4995457;28;96963;-26
2023/06/27 05:03:37;;;;;;;3.35;0.73;;;;;;;17.87;64.33;102080.28;4994675;28;98040;-26
2023/06/27 05:06:06;;;;;;;4.07;0.82;;;;;;;17.93;64.36;102088.06;4994439;28;97811;-26
2023/06/27 05:08:34;;;;;;;3.97;1.10;;;;;;;17.97;64.42;102086.84;4994042;28;96632;-28
2023/06/27 05:11:00;;;;;;;2.25;1.00;;;;;;;17.98;64.08;102085.88;4993105;28;96845;-27
2023/06/27 05:13:25;;;;;;;2.30;0.80;;;;;;;18.01;63.87;102080.16;4994570;28;97498;-26
2023/06/27 05:15:51;;;;;;;3.63;0.80;;;;;;;18.06;63.95;102083.44;4994300;28;97314;-26
2023/06/27 05:18:16;;;;;;;1.08;0.68;;;;;;;18.13;64.13;102092.94;4994072;28;96663;-27
2023/06/27 05:20:45;;;;;;;2.42;0.85;;;;;;;18.16;64.03;102091.84;4993740;28;96791;-27
2023/06/27 05:23:11;;;;;;;2.53;0.90;;;;;;;18.17;63.30;102082.66;4991438;28;99137;-26
2023/06/27 05:25:37;;;;;;;2.00;1.15;;;;;;;18.28;63.57;102088.19;4993145;28;101019;-27
2023/06/27 05:28:02;;;;;;;2.42;0.90;;;;;;;18.33;63.18;102083.25;4994656;28;97202;-27
2023/06/27 05:30:29;;;;;;;1.08;0.77;;;;;;;18.40;63.69;102084.56;4994394;28;96745;-26
2023/06/27 05:32:58;;;;;;;3.08;1.13;;;;;;;18.44;63.35;102087.94;4991955;28;101048;-27
2023/06/27 05:35:24;;;;;;;1.50;0.75;;;;;;;18.44;62.98;102082.44;4990783;28;101067;-27
2023/06/27 05:37:49;;;;;;;8.27;0.88;;;;;;;18.53;62.97;102089.13;4994403;28;96555;-26
2023/06/27 05:40:14;;;;;;;2.25;0.70;;;;;;;18.59;62.92;102100.50;4994221;28;96778;-27
2023/06/27 05:42:40;;;;;;;1.48;0.85;;;;;;;18.63;62.65;102099.28;4993918;28;100144;-27
2023/06/27 05:45:06;;;;;;;1.67;0.75;;;;;;;18.67;62.20;102092.56;4993749;28;99142;-27
2023/06/27 05:47:32;;;;;;;1.25;0.63;;;;;;;18.81;62.37;102093.44;4992476;28;97383;-28
2023/06/27 05:49:57;;;;;;;1.17;0.75;;;;;;;18.93;61.91;102088.88;4994427;28;96794;-26
2023/06/27 05:52:23;;;;;;;1.52;0.77;;;;;;;18.96;62.07;102075.75;4993916;28;97897;-27
2023/06/27 05:54:49;;;;;;;1.83;0.60;;;;;;;19.06;61.19;102092.38;4993524;28;99148;-28
2023/06/27 05:57:15;;;;;;;1.20;0.60;;;;;;;19.10;60.56;102083.78;4991960;28;97433;-26
2023/06/27 05:59:40;;;;;;;2.70;0.82;;;;;;;19.26;60.87;102093.59;4993680;28;96836;-27
2023/06/27 06:02:06;;;;;;;1.10;0.50;;;;;;;19.40;60.21;102093.38;4993467;28;97496;-28
2023/06/27 06:04:31;;;;;;;1.80;0.60;;;;;;;19.52;60.01;102097.00;4993605;28;97801;-26
2023/06/27 06:06:58;;;;;;;2.35;0.68;;;;;;;19.60;59.64;102085.41;4993693;28;96608;-28
2023/06/27 06:09:24;;;;;;;1.52;0.50;;;;;;;19.61;59.33;102092.66;4993667;28;96814;-28
2023/06/27 06:11:49;;;;;;;2.75;0.57;;;;;;;19.77;59.36;102104.22;4992141;28;101744;-26
2023/06/27 06:14:15;;;;;;;2.33;0.63;;;;;;;19.83;59.09;102102.81;4994256;28;97701;-27
2023/06/27 06:16:41;;;;;;;2.33;0.77;;;;;;;19.85;58.83;102096.19;4993390;28;96633;-27
2023/06/27 06:19:07;;;;;;;0.57;0.40;;;;;;;19.94;58.51;102102.84;4992211;28;96845;-26
2023/06/27 06:21:33;;;;;;;1.15;0.70;;;;;;;20.04;58.24;102106.56;4991445;28;101349;-26
2023/06/27 06:23:58;;;;;;;4.85;0.77;;;;;;;20.10;58.32;102107.97;4993383;28;97930;-26
2023/06/27 06:26:24;;;;;;;2.30;0.70;;;;;;;20.21;58.29;102105.19;4993501;28;96489;-27
2023/06/27 06:28:49;;;;;;;2.47;0.55;;;;;;;20.29;58.41;102105.44;4993389;28;96850;-26
2023/06/27 06:31:16;;;;;;;1.23;0.50;;;;;;;20.33;57.82;102106.97;4992953;28;103683;-26
2023/06/27 06:33:42;;;;;;;4.07;0.80;;;;;;;20.44;57.66;102105.19;4991707;28;100674;-26
2023/06/27 06:36:08;;;;;;;2.25;0.68;;;;;;;20.55;57.54;102105.16;4991187;28;96952;-27
2023/06/27 06:38:33;;;;;;;1.77;0.55;;;;;;;20.72;57.35;102107.38;4993792;28;96841;-27
2023/06/27 06:40:59;;;;;;;1.65;0.60;;;;;;;20.91;56.67;102111.34;4991678;28;100855;-26
2023/06/27 06:43:25;;;;;;;2.20;0.80;;;;;;;21.00;56.34;102103.16;4992883;28;99227;-26
2023/06/27 06:45:52;;;;;;;1.60;0.80;;;;;;;21.11;56.40;102112.38;4991089;28;96984;-26
2023/06/27 06:48:17;;;;;;;0.65;0.40;;;;;;;21.03;56.43;102113.03;4991730;28;96664;-26
2023/06/27 06:50:42;;;;;;;2.47;0.70;;;;;;;21.03;56.29;102118.56;4993016;28;97346;-27
2023/06/27 06:53:08;;;;;;;3.55;0.70;;;;;;;21.11;56.47;102117.88;4992944;28;97771;-26
2023/06/27 06:55:33;;;;;;;2.63;0.75;;;;;;;21.06;56.24;102123.78;4992716;28;96598;-27
2023/06/27 06:57:59;;;;;;;2.22;0.50;;;;;;;21.06;56.50;102132.06;4992878;28;96861;-26
2023/06/27 07:00:24;;;;;;;1.48;0.60;;;;;;;21.01;56.45;102112.28;4992666;28;98225;-26
2023/06/27 07:02:50;;;;;;;2.35;0.65;;;;;;;21.17;56.35;102107.22;4992871;28;99918;-26
2023/06/27 07:05:16;;;;;;;3.17;0.70;;;;;;;21.29;55.94;102109.91;4992749;28;96534;-27
2023/06/27 07:07:41;;;;;;;2.13;0.75;;;;;;;21.31;55.63;102113.38;4992623;28;96842;-27
2023/06/27 07:10:07;;;;;;;3.15;1.17;;;;;;;21.15;55.83;102124.88;4992193;28;97938;-26
2023/06/27 07:12:32;;;;;;;1.35;0.65;;;;;;;21.02;55.83;102113.16;4992700;28;97833;-26
2023/06/27 07:14:58;;;;;;;2.33;0.60;;;;;;;20.97;56.15;102119.06;4992807;28;96604;-27
2023/06/27 07:17:23;;;;;;;1.67;0.73;;;;;;;20.97;56.22;102122.72;4992642;28;96926;-26
2023/06/27 07:19:48;;;;;;;4.65;0.77;;;;;;;20.92;55.24;102113.06;4992571;28;98001;-26
2023/06/27 07:22:14;;;;;;;1.95;0.68;;;;;;;20.81;55.72;102103.00;4992280;28;99129;-27
2023/06/27 07:24:40;;;;;;;5.32;0.80;;;;;;;20.77;56.09;102116.13;4992682;28;96515;-26
2023/06/27 07:27:06;;;;;;;2.97;0.70;;;;;;;20.76;55.57;102122.66;4991484;28;96822;-28
2023/06/27 07:29:31;;;;;;;1.38;0.60;;;;;;;20.73;55.62;102128.41;4992469;28;97316;-26
2023/06/27 07:31:57;;;;;;;2.47;0.40;;;;;;;20.68;55.40;102119.66;4992391;28;97779;-28
2023/06/27 07:34:22;;;;;;;0.95;0.47;;;;;;;20.75;55.74;102125.53;4991749;28;96821;-26
2023/06/27 07:36:48;;;;;;;1.80;0.57;;;;;;;20.74;55.15;102118.28;4992036;28;96818;-27
2023/06/27 07:39:13;;;;;;;1.27;0.68;;;;;;;20.76;54.47;102125.41;4992336;28;97874;-26
2023/06/27 07:41:39;;;;;;;1.83;0.40;;;;;;;20.72;54.75;102121.16;4992230;28;97813;-26
2023/06/27 07:44:05;;;;;;;1.13;0.45;;;;;;;20.76;54.52;102117.16;4992172;28;96560;-27
2023/06/27 07:46:30;;;;;;;0.60;0.45;;;;;;;20.77;54.53;102109.75;4992406;28;96797;-27
2023/06/27 07:48:59;;;;;;;1.88;0.50;;;;;;;20.83;54.37;102119.38;4991881;28;99236;-27
2023/06/27 07:51:28;;;;;;;2.25;0.50;;;;;;;20.85;54.36;102118.22;4992271;28;99694;-27
2023/06/27 07:53:56;;;;;;;0.95;0.50;;;;;;;20.95;54.21;102118.31;4990734;28;96636;-26
2023/06/27 07:56:22;;;;;;;1.77;0.50;;;;;;;21.03;54.02;102117.69;4991926;28;96875;-26
2023/06/27 07:58:48;;;;;;;2.05;0.60;;;;;;;21.05;54.07;102112.91;4995381;28;100942;-27
2023/06/27 08:01:13;;;;;;;0.68;0.38;;;;;;;21.07;53.62;102117.28;4998667;28;97964;-26
2023/06/27 08:03:39;;;;;;;1.20;0.70;;;;;;;21.03;53.07;102117.69;4998926;28;96651;-27
2023/06/27 08:06:04;;;;;;;1.27;0.60;;;;;;;21.08;53.38;102131.94;4998676;28;96538;-27
2023/06/27 08:08:30;;;;;;;3.83;0.88;;;;;;;21.05;52.31;102130.31;4996986;28;98477;-27
2023/06/27 08:10:58;;;;;;;2.08;0.45;;;;;;;21.09;52.48;102131.78;4998515;28;97250;-26
2023/06/27 08:13:24;;;;;;;1.17;0.40;;;;;;;21.11;52.78;102127.03;4996874;28;96611;-27
2023/06/27 08:15:50;;;;;;;0.50;0.40;;;;;;;21.09;52.78;102129.03;4997326;28;96789;-26
2023/06/27 08:18:15;;;;;;;2.15;0.68;;;;;;;21.13;52.02;102138.78;4998410;28;97217;-26
2023/06/27 08:20:45;;;;;;;0.55;0.30;;;;;;;21.08;51.63;102119.03;4998408;28;98005;-27
2023/06/27 08:23:10;;;;;;;0.88;0.40;;;;;;;21.11;52.21;102123.41;4996540;28;96960;-27
2023/06/27 08:25:36;;;;;;;2.05;0.50;;;;;;;21.10;52.38;102122.53;4998475;28;96739;-27
2023/06/27 08:28:02;;;;;;;3.05;0.77;;;;;;;21.14;52.22;102118.50;4996570;28;101030;-26
2023/06/27 08:30:29;;;;;;;3.35;0.57;;;;;;;21.20;51.49;102117.97;4996803;28;100908;-27
2023/06/27 08:32:56;;;;;;;0.70;0.30;;;;;;;21.19;51.38;102121.75;4996859;28;96707;-27
2023/06/27 08:35:25;;;;;;;1.58;0.52;;;;;;;21.15;51.23;102116.63;4995460;28;96895;-26
2023/06/27 08:37:52;;;;;;;1.75;0.30;;;;;;;21.17;51.35;102117.38;4996748;28;100969;-27
2023/06/27 08:40:24;;;;;;;1.63;0.40;;;;;;;21.23;51.14;102121.47;4997064;28;101470;-26
2023/06/27 08:42:50;;;;;;;0.85;0.22;;;;;;;21.24;50.83;102121.34;4996739;28;96638;-26
2023/06/27 08:45:18;;;;;;;3.15;0.45;;;;;;;21.24;50.51;102128.72;4998547;28;96867;-27
2023/06/27 08:47:46;;;;;;;1.33;0.55;;;;;;;21.16;50.14;102123.88;4997721;28;97408;-27
2023/06/27 08:50:13;;;;;;;0.15;0.10;;;;;;;21.16;50.32;102126.63;4996561;28;100834;-26
2023/06/27 08:53:03;;;;;;;2.70;0.35;;;;;;;21.13;50.06;102133.28;4996727;28;96579;-27
2023/06/27 08:56:00;;;;;;;2.95;0.55;;;;;;;21.06;49.96;102126.53;4996535;28;96787;-27
2023/06/27 08:58:31;;;;;;;1.25;0.45;;;;;;;21.08;50.44;102124.53;4998124;28;96992;-26
2023/06/27 09:00:57;;;;;;;2.42;0.80;;;;;;;21.09;50.18;102130.91;4996631;28;100931;-27
2023/06/27 09:03:23;;;;;;;1.52;0.40;;;;;;;21.05;50.84;102126.69;4997752;28;96608;-27
2023/06/27 09:05:49;;;;;;;1.80;0.40;;;;;;;21.00;50.89;102119.69;4998205;28;96816;-26
2023/06/27 09:08:14;;;;;;;0.98;0.40;;;;;;;21.04;50.85;102122.19;4997441;28;97941;-27
2023/06/27 09:10:42;;;;;;;1.23;0.40;;;;;;;21.00;50.73;102122.44;4993718;28;97812;-28
2023/06/27 09:13:09;;;;;;;1.98;0.47;;;;;;;21.00;50.86;102127.97;4992486;28;97111;-27
2023/06/27 09:15:34;;;;;;;2.28;0.85;;;;;;;21.06;50.50;102134.81;4992971;28;97070;-26
2023/06/27 09:18:00;;;;;;;1.60;0.38;;;;;;;21.12;50.74;102134.28;4994082;28;98951;-27
2023/06/27 09:20:25;;;;;;;1.45;0.50;;;;;;;21.14;50.37;102128.63;4992895;28;101175;-26
2023/06/27 09:22:51;;;;;;;4.07;0.73;;;;;;;21.19;49.89;102130.00;4994436;28;96875;-27
2023/06/27 09:25:19;;;;;;;2.78;0.70;;;;;;;21.30;49.73;102122.69;4994098;28;96844;-27
2023/06/27 09:27:45;;;;;;;1.98;0.28;;;;;;;21.43;49.99;102139.94;4992826;28;101508;-26
2023/06/27 09:30:12;;;;;;;1.50;0.47;;;;;;;21.49;50.04;102131.13;4992966;28;100554;-27
2023/06/27 09:32:57;;;;;;;1.88;0.50;;;;;;;21.58;49.89;102138.59;4994273;28;96771;-27
2023/06/27 09:35:25;;;;;;;2.58;0.50;;;;;;;21.80;49.76;102126.53;4993119;28;96958;-26
2023/06/27 09:37:51;;;;;;;1.00;0.50;;;;;;;22.11;48.73;102128.44;4992065;28;101277;-26
2023/06/27 09:40:20;;;;;;;1.25;0.40;;;;;;;22.55;47.74;102132.69;4992562;28;100764;-27
2023/06/27 09:42:50;;;;;;;3.20;0.73;;;;;;;22.93;47.13;102127.34;4992649;28;96748;-27
2023/06/27 09:45:16;;;;;;;5.72;0.68;;;;;;;23.02;47.05;102119.09;4992672;28;96717;-27
2023/06/27 09:47:42;;;;;;;0.55;0.30;;;;;;;23.12;47.14;102119.13;4992493;28;101202;-27
2023/06/27 09:50:08;;;;;;;2.90;0.55;;;;;;;23.17;46.55;102125.09;4993890;28;97817;-26
2023/06/27 09:52:34;;;;;;;2.40;0.95;;;;;;;23.07;46.76;102136.16;4992504;28;96642;-27
2023/06/27 09:54:59;;;;;;;1.42;0.57;;;;;;;22.96;47.53;102133.47;4994402;28;96763;-26
2023/06/27 09:57:25;;;;;;;1.17;0.52;;;;;;;22.75;46.79;102122.53;4993492;28;97920;-27
2023/06/27 09:59:57;;;;;;;0.63;0.30;;;;;;;22.69;46.73;102131.38;4993846;28;98025;-26
2023/06/27 10:02:28;;;;;;;1.27;0.63;;;;;;;22.71;47.18;102131.25;4993176;28;96592;-27
2023/06/27 10:04:53;;;;;;;3.22;0.70;;;;;;;22.77;47.07;102136.22;4992356;28;97041;-27
2023/06/27 10:07:19;;;;;;;2.25;0.60;;;;;;;22.89;45.76;102143.38;4993594;28;98023;-26
2023/06/27 10:09:45;;;;;;;2.80;0.65;;;;;;;22.99;46.57;102129.59;4991950;28;100826;-27
2023/06/27 10:12:11;;;;;;;2.15;0.73;;;;;;;23.11;46.36;102133.94;4993583;28;96725;-27
2023/06/27 10:14:36;;;;;;;1.00;0.55;;;;;;;23.14;46.06;102132.78;4992301;28;96835;-27
2023/06/27 10:17:03;;;;;;;1.00;0.50;;;;;;;23.16;45.93;102134.38;4993393;28;97920;-27
2023/06/27 10:19:32;;;;;;;1.23;0.60;;;;;;;23.19;45.75;102122.16;4992126;28;102259;-27
2023/06/27 10:22:00;;;;;;;2.20;0.43;;;;;;;23.24;45.60;102129.03;4993218;28;96710;-26
2023/06/27 10:24:28;;;;;;;0.55;0.35;;;;;;;23.35;46.08;102133.50;4993263;28;96841;-27
2023/06/27 10:26:56;;;;;;;1.00;0.40;;;;;;;23.17;45.46;102135.25;4991389;28;100942;-27
2023/06/27 10:29:23;;;;;;;2.20;0.47;;;;;;;23.08;45.98;102129.59;4991800;28;101425;-27
2023/06/27 10:31:50;;;;;;;2.80;0.70;;;;;;;23.10;44.61;102118.41;4991818;28;96671;-26
2023/06/27 10:34:28;;;;;;;1.90;0.52;;;;;;;22.87;43.45;102120.53;4992899;28;96840;-26
2023/06/27 10:36:58;;;;;;;0.85;0.57;;;;;;;22.91;44.93;102138.56;4992686;28;99583;-27
2023/06/27 10:39:56;;;;;;;0.98;0.50;;;;;;;23.10;44.89;102135.00;4991354;28;99475;-26
2023/06/27 10:42:21;;;;;;;4.13;0.60;;;;;;;23.19;45.16;102147.94;4993171;28;96527;-26
2023/06/27 10:45:09;;;;;;;1.98;0.60;;;;;;;23.07;44.43;102144.44;4993805;28;96825;-26
2023/06/27 10:47:34;;;;;;;3.28;0.85;;;;;;;22.98;45.75;102147.16;4991440;28;100778;-26
2023/06/27 10:50:08;;;;;;;4.63;0.98;;;;;;;22.92;45.71;102140.31;4992858;28;97775;-26
2023/06/27 10:52:34;;;;;;;2.53;0.82;;;;;;;23.02;46.14;102137.59;4992807;28;96626;-27
2023/06/27 10:55:15;;;;;;;1.45;0.65;;;;;;;23.08;44.97;102128.72;4991620;28;96970;-27
2023/06/27 10:57:43;;;;;;;4.00;0.77;;;;;;;23.03;45.08;102137.44;4992618;28;99005;-28
2023/06/27 11:00:31;;;;;;;2.17;0.77;;;;;;;23.07;44.62;102133.38;4991350;28;101429;-26
2023/06/27 11:02:58;;;;;;;3.03;1.15;;;;;;;23.19;44.36;102131.34;4993040;28;96565;-27
2023/06/27 11:05:46;;;;;;;2.83;0.88;;;;;;;23.28;44.29;102138.75;4991401;28;96698;-27
2023/06/27 11:08:28;;;;;;;1.13;0.60;;;;;;;23.21;44.98;102140.34;4991611;28;100878;-27
2023/06/27 11:10:59;;;;;;;2.10;0.63;;;;;;;23.15;45.04;102149.25;4991565;28;101344;-26
2023/06/27 11:13:27;;;;;;;1.05;0.52;;;;;;;22.98;45.25;102144.41;4992771;28;96517;-26
2023/06/27 11:15:54;;;;;;;1.83;0.85;;;;;;;23.14;45.00;102144.72;4991156;28;96886;-27
2023/06/27 11:18:21;;;;;;;0.70;0.40;;;;;;;23.35;43.77;102157.53;4990578;28;100822;-28
2023/06/27 11:20:48;;;;;;;1.70;0.65;;;;;;;23.49;44.06;102148.78;4990898;28;98886;-27
2023/06/27 11:23:15;;;;;;;3.30;0.90;;;;;;;23.57;43.42;102135.06;4991171;28;96653;-28